createdAt,value
2022-10-15T00:03:03.493Z,12.90
2022-10-15T00:08:06.767Z,12.80
2022-10-15T00:13:08.541Z,12.90
2022-10-15T00:18:10.767Z,12.90
2022-10-15T00:23:12.532Z,12.90
2022-10-15T00:28:14.368Z,12.90
2022-10-15T00:33:16.188Z,12.90
2022-10-15T00:38:17.982Z,12.90
2022-10-15T00:43:37.859Z,12.90
2022-10-15T00:48:39.831Z,12.90
2022-10-15T00:53:41.791Z,12.90
2022-10-15T00:58:44.011Z,12.90
2022-10-15T01:03:45.874Z,12.80
2022-10-15T01:08:47.791Z,12.80
2022-10-15T01:13:58.438Z,12.80
2022-10-15T01:19:21.968Z,12.90
2022-10-15T01:24:35.676Z,12.90
2022-10-15T01:29:43.343Z,12.90
2022-10-15T01:34:51.717Z,12.80
2022-10-15T01:40:05.217Z,12.90
2022-10-15T01:45:16.237Z,12.90
2022-10-15T01:50:34.749Z,12.80
2022-10-15T01:55:37.663Z,12.80
2022-10-15T02:00:42.278Z,12.80
2022-10-15T02:05:55.424Z,12.80
2022-10-15T02:11:00.461Z,12.70
2022-10-15T02:16:10.588Z,12.70
2022-10-15T02:21:22.610Z,12.70
2022-10-15T02:26:30.289Z,12.80
2022-10-15T02:31:35.172Z,12.80
2022-10-15T02:36:40.267Z,12.80
2022-10-15T02:41:43.198Z,12.70
2022-10-15T02:46:47.914Z,12.70
2022-10-15T02:51:51.358Z,12.70
2022-10-15T02:56:53.171Z,12.60
2022-10-15T03:01:56.221Z,12.60
2022-10-15T03:06:59.384Z,12.60
2022-10-15T03:12:01.385Z,12.60
2022-10-15T03:17:04.953Z,12.60
2022-10-15T03:22:06.868Z,12.60
2022-10-15T03:27:17.707Z,12.60
2022-10-15T03:32:19.742Z,12.60
2022-10-15T03:37:21.959Z,12.60
2022-10-15T03:42:24.528Z,12.60
2022-10-15T03:47:27.024Z,12.60
2022-10-15T03:52:28.947Z,12.60
2022-10-15T03:57:30.912Z,12.70
2022-10-15T04:02:38.981Z,12.70
2022-10-15T04:07:52.236Z,12.70
2022-10-15T04:12:56.194Z,12.70
2022-10-15T04:17:59.208Z,12.70
2022-10-15T04:23:03.236Z,12.70
2022-10-15T04:28:06.529Z,12.70
2022-10-15T04:33:10.450Z,12.70
2022-10-15T04:38:12.335Z,12.70
2022-10-15T04:43:34.111Z,12.70
2022-10-15T04:48:42.993Z,12.70
2022-10-15T04:53:47.776Z,12.70
2022-10-15T04:58:50.478Z,12.70
2022-10-15T05:03:52.503Z,12.70
2022-10-15T05:08:54.595Z,12.60
2022-10-15T05:14:01.447Z,12.60
2022-10-15T05:19:07.804Z,12.60
2022-10-15T05:24:12.257Z,12.70
2022-10-15T05:29:38.378Z,12.60
2022-10-15T05:34:40.247Z,12.60
2022-10-15T05:39:48.007Z,12.70
2022-10-15T05:44:51.283Z,12.70
2022-10-15T05:49:55.534Z,12.60
2022-10-15T05:55:03.695Z,12.70
2022-10-15T06:00:08.183Z,12.60
2022-10-15T06:05:15.719Z,12.60
2022-10-15T06:10:17.645Z,12.60
2022-10-15T06:15:19.796Z,12.70
2022-10-15T06:20:21.592Z,12.60
2022-10-15T06:25:23.317Z,12.70
2022-10-15T06:30:25.048Z,12.70
2022-10-15T06:35:30.235Z,12.70
2022-10-15T06:40:32.217Z,12.70
2022-10-15T06:45:38.244Z,12.70
2022-10-15T06:50:44.268Z,12.70
2022-10-15T06:55:46.062Z,12.70
2022-10-15T07:00:47.802Z,12.80
2022-10-15T07:05:49.535Z,12.80
2022-10-15T07:10:51.292Z,12.80
2022-10-15T07:15:55.935Z,12.80
2022-10-15T07:20:57.829Z,12.80
2022-10-15T07:26:00.846Z,12.90
2022-10-15T07:31:05.051Z,12.90
2022-10-15T07:36:10.095Z,12.90
2022-10-15T07:41:11.929Z,12.90
2022-10-15T07:46:17.392Z,12.90
2022-10-15T07:51:19.450Z,12.90
2022-10-15T07:56:21.479Z,13.00
2022-10-15T08:01:23.305Z,13.00
2022-10-15T08:06:25.210Z,13.00
2022-10-15T08:11:27.039Z,13.00
2022-10-15T08:16:28.943Z,13.10
2022-10-15T08:21:33.725Z,13.10
2022-10-15T08:26:36.256Z,13.10
2022-10-15T08:31:41.663Z,13.20
2022-10-15T08:36:43.744Z,13.20
2022-10-15T08:41:50.607Z,13.20
2022-10-15T08:47:28.701Z,13.30
2022-10-15T08:52:44.434Z,13.30
2022-10-15T08:58:17.054Z,13.30
2022-10-15T09:03:21.846Z,13.40
2022-10-15T09:08:38.431Z,13.40
2022-10-15T09:13:44.359Z,13.50
2022-10-15T09:18:52.547Z,13.50
2022-10-15T09:24:02.205Z,13.50
2022-10-15T09:29:21.322Z,13.60
2022-10-15T09:34:45.160Z,13.60
2022-10-15T09:39:52.863Z,13.50
2022-10-15T09:44:57.611Z,13.60
2022-10-15T09:49:59.956Z,13.60
2022-10-15T09:55:18.238Z,13.60
2022-10-15T10:00:20.611Z,13.70
2022-10-15T10:05:36.256Z,13.60
2022-10-15T10:10:40.778Z,13.60
2022-10-15T10:15:46.160Z,13.70
2022-10-15T10:21:02.704Z,13.70
2022-10-15T10:26:07.704Z,13.80
2022-10-15T10:31:10.815Z,13.70
2022-10-15T10:36:34.691Z,13.80
2022-10-15T10:41:48.224Z,13.80
2022-10-15T10:47:08.372Z,13.80
2022-10-15T10:52:20.550Z,13.80
2022-10-15T10:57:51.217Z,13.80
2022-10-15T11:02:54.498Z,13.80
2022-10-15T11:08:09.880Z,13.80
2022-10-15T11:13:21.403Z,13.80
2022-10-15T11:18:23.574Z,13.90
2022-10-15T11:23:44.000Z,13.90
2022-10-15T11:29:06.330Z,13.90
2022-10-15T11:34:41.173Z,14.00
2022-10-15T11:40:05.698Z,14.00
2022-10-15T11:45:29.146Z,14.10
2022-10-15T11:50:40.820Z,14.10
2022-10-15T11:55:54.971Z,14.20
2022-10-15T12:01:04.850Z,14.20
2022-10-15T12:06:19.383Z,14.30
2022-10-15T12:11:42.898Z,14.40
2022-10-15T12:16:58.680Z,14.40
2022-10-15T12:22:06.743Z,14.60
2022-10-15T12:27:26.806Z,14.80
2022-10-15T12:32:36.149Z,14.90
2022-10-15T12:37:37.989Z,15.10
2022-10-15T12:42:40.692Z,15.20
2022-10-15T12:47:49.523Z,15.30
2022-10-15T12:52:54.253Z,15.30
2022-10-15T12:57:58.621Z,15.30
2022-10-15T13:03:21.137Z,15.50
2022-10-15T13:08:26.227Z,15.50
2022-10-15T13:13:31.070Z,15.50
2022-10-15T13:18:33.353Z,15.50
2022-10-15T13:23:35.923Z,15.50
2022-10-15T13:28:39.508Z,15.60
2022-10-15T13:33:48.219Z,15.70
2022-10-15T13:38:59.404Z,15.80
2022-10-15T13:44:02.557Z,15.90
2022-10-15T13:49:12.624Z,15.90
2022-10-15T13:54:24.976Z,16.00
2022-10-15T13:59:31.514Z,15.90
2022-10-15T14:04:36.847Z,15.90
2022-10-15T14:09:42.031Z,15.90
2022-10-15T14:14:48.919Z,15.80
2022-10-15T14:25:34.125Z,15.70
2022-10-15T14:30:40.544Z,15.70
2022-10-15T14:35:52.449Z,15.60
2022-10-15T14:41:07.925Z,15.60
2022-10-15T14:46:22.685Z,15.60
2022-10-15T14:51:27.922Z,15.60
2022-10-15T14:56:33.403Z,15.60
2022-10-15T15:01:36.047Z,15.60
2022-10-15T15:06:40.409Z,15.60
2022-10-15T15:11:42.859Z,15.60
2022-10-15T15:16:47.359Z,15.70
2022-10-15T15:21:49.220Z,15.60
2022-10-15T15:26:50.979Z,15.60
2022-10-15T15:31:52.791Z,15.60
2022-10-15T15:36:55.025Z,15.60
2022-10-15T15:42:06.650Z,15.50
2022-10-15T15:47:10.124Z,15.50
2022-10-15T15:52:14.055Z,15.40
2022-10-15T15:57:15.814Z,15.40
2022-10-15T16:02:17.569Z,15.30
2022-10-15T16:07:19.711Z,15.30
2022-10-15T16:12:21.652Z,15.20
2022-10-15T16:17:24.787Z,15.10
2022-10-15T16:22:28.290Z,15.10
2022-10-15T16:27:33.257Z,15.10
2022-10-15T16:32:35.236Z,15.00
2022-10-15T16:37:39.623Z,14.90
2022-10-15T16:42:41.787Z,14.80
2022-10-15T16:47:44.107Z,14.70
2022-10-15T16:52:47.607Z,14.50
2022-10-15T16:57:49.352Z,14.40
2022-10-15T17:02:51.958Z,14.20
2022-10-15T17:07:53.711Z,14.10
2022-10-15T17:12:55.494Z,14.00
2022-10-15T17:17:57.316Z,13.90
2022-10-15T17:23:00.378Z,13.70
2022-10-15T17:28:02.535Z,13.60
2022-10-15T17:33:05.520Z,13.60
2022-10-15T17:38:07.620Z,13.60
2022-10-15T17:43:09.384Z,13.50
2022-10-15T17:48:11.155Z,13.50
2022-10-15T17:53:13.339Z,13.40
2022-10-15T17:58:16.716Z,13.40
2022-10-15T18:03:18.751Z,13.40
2022-10-15T18:08:20.856Z,13.40
2022-10-15T18:13:22.604Z,13.40
2022-10-15T18:18:27.216Z,13.40
2022-10-15T18:28:42.841Z,13.50
2022-10-15T18:33:48.193Z,13.60
2022-10-15T18:38:50.381Z,13.60
2022-10-15T18:44:04.148Z,13.60
2022-10-15T18:49:06.834Z,13.60
2022-10-15T18:54:10.829Z,13.70
2022-10-15T18:59:13.188Z,13.70
2022-10-15T19:04:18.336Z,13.70
2022-10-15T19:09:26.513Z,13.70
2022-10-15T19:14:29.368Z,13.70
2022-10-15T19:19:32.013Z,13.80
2022-10-15T19:24:34.340Z,13.70
2022-10-15T19:29:39.132Z,13.80
2022-10-15T19:34:41.007Z,13.70
2022-10-15T19:39:48.052Z,13.80
2022-10-15T19:44:49.836Z,13.70
2022-10-15T19:49:52.281Z,13.80
2022-10-15T19:54:54.049Z,13.80
2022-10-15T19:59:55.858Z,13.80
2022-10-15T20:04:57.588Z,13.80
2022-10-15T20:10:01.012Z,13.80
2022-10-15T20:15:03.035Z,13.80
2022-10-15T20:20:05.619Z,13.80
2022-10-15T20:25:07.776Z,13.80
2022-10-15T20:30:11.205Z,13.80
2022-10-15T20:35:13.480Z,13.80
2022-10-15T20:40:15.594Z,13.90
2022-10-15T20:45:17.515Z,13.90
2022-10-15T20:50:32.282Z,13.80
2022-10-15T20:55:35.491Z,13.80
2022-10-15T21:00:37.243Z,13.80
2022-10-15T21:05:39.027Z,13.90
2022-10-15T21:10:40.883Z,14.00
2022-10-15T21:15:42.785Z,13.90
2022-10-15T21:20:44.532Z,13.90
2022-10-15T21:25:46.341Z,13.80
2022-10-15T21:30:48.100Z,13.90
2022-10-15T21:35:49.852Z,13.90
2022-10-15T21:40:52.269Z,13.90
2022-10-15T21:45:54.240Z,13.90
2022-10-15T21:50:55.977Z,13.90
2022-10-15T21:55:57.871Z,13.90
2022-10-15T22:01:15.950Z,13.90
2022-10-15T22:06:21.410Z,13.90
2022-10-15T22:16:35.734Z,13.90
2022-10-15T22:21:38.500Z,13.90
2022-10-15T22:26:46.759Z,13.90
2022-10-15T22:31:49.159Z,14.00
2022-10-15T22:36:51.455Z,14.00
2022-10-15T22:41:53.455Z,13.90
2022-10-15T22:46:55.236Z,13.90
2022-10-15T22:51:57.086Z,13.90
2022-10-15T22:56:58.868Z,14.00
2022-10-15T23:02:00.750Z,13.90
2022-10-15T23:07:02.479Z,14.00
2022-10-15T23:12:04.608Z,13.90
2022-10-15T23:17:06.352Z,13.90
2022-10-15T23:22:09.305Z,13.90
2022-10-15T23:27:12.370Z,13.90
2022-10-15T23:32:14.111Z,13.90
2022-10-15T23:37:16.067Z,13.90
2022-10-15T23:42:18.368Z,13.90
2022-10-15T23:47:20.103Z,13.80
2022-10-15T23:52:21.843Z,13.80
2022-10-15T23:57:23.831Z,13.80
